Time;durP1;ratioP1;P1;durP2;ratioP2;P2;SDS_P1;SDS_P2;PMS_P1;PMS_P2;Temp;Humidity;BMP_temperature;BMP_pressure;BME280_temperature;BME280_humidity;BME280_pressure;Samples;Min_cycle;Max_cycle;Signal;HPM_P1;HPM_P2
2020/12/16 00:01:37;;;;;;;77.55;26.12;;;;;;;1.21;100.00;100359.14;1673118;84;21188;-68
2020/12/16 00:04:05;;;;;;;76.50;26.40;;;;;;;1.16;100.00;100358.07;1672925;84;21158;-68
2020/12/16 00:06:34;;;;;;;49.60;24.95;;;;;;;1.12;100.00;100360.88;1691095;84;21218;-68
2020/12/16 00:09:01;;;;;;;50.55;27.55;;;;;;;1.11;100.00;100363.11;1698486;84;21186;-67
2020/12/16 00:11:30;;;;;;;53.75;26.77;;;;;;;1.12;100.00;100360.88;1690991;84;21153;-68
2020/12/16 00:13:58;;;;;;;64.92;26.48;;;;;;;1.13;100.00;100371.70;1688072;84;21197;-68
2020/12/16 00:16:25;;;;;;;90.70;27.30;;;;;;;1.15;100.00;100372.47;1699635;84;21221;-68
2020/12/16 00:18:53;;;;;;;80.40;25.43;;;;;;;1.18;100.00;100369.73;1700830;84;21189;-67
2020/12/16 00:21:22;;;;;;;77.15;26.42;;;;;;;1.21;100.00;100368.27;1703746;84;21716;-67
2020/12/16 00:23:50;;;;;;;49.27;25.27;;;;;;;1.22;100.00;100369.97;1684493;84;21356;-67
2020/12/16 00:26:18;;;;;;;45.38;25.10;;;;;;;1.23;100.00;100369.03;1699878;84;21201;-68
2020/12/16 00:28:45;;;;;;;49.25;26.55;;;;;;;1.27;100.00;100365.39;1680599;84;21201;-67
2020/12/16 00:31:14;;;;;;;89.95;28.07;;;;;;;1.27;100.00;100367.13;1685768;84;21601;-67
2020/12/16 00:33:42;;;;;;;73.87;26.15;;;;;;;1.26;100.00;100363.69;1658544;84;21189;-67
2020/12/16 00:36:10;;;;;;;61.00;26.42;;;;;;;1.26;100.00;100364.99;1677221;84;21201;-67
2020/12/16 00:38:38;;;;;;;90.30;27.93;;;;;;;1.22;100.00;100372.57;1685425;84;21383;-67
2020/12/16 00:41:06;;;;;;;57.40;29.07;;;;;;;1.21;100.00;100365.66;1694769;84;21347;-67
2020/12/16 00:43:35;;;;;;;49.98;27.65;;;;;;;1.23;100.00;100359.91;1704033;84;21224;-67
2020/12/16 00:46:02;;;;;;;53.48;27.77;;;;;;;1.28;100.00;100361.85;1655427;84;21201;-67
2020/12/16 00:48:31;;;;;;;54.23;27.82;;;;;;;1.29;100.00;100361.38;1692378;84;21623;-67
2020/12/16 00:50:59;;;;;;;65.45;28.12;;;;;;;1.25;100.00;100358.55;1691127;84;21225;-67
2020/12/16 00:53:27;;;;;;;71.42;29.12;;;;;;;1.22;100.00;100362.15;1694139;84;21158;-67
2020/12/16 00:55:56;;;;;;;66.95;27.73;;;;;;;1.23;100.00;100359.91;1704586;84;21280;-67
2020/12/16 00:58:24;;;;;;;48.42;27.62;;;;;;;1.24;100.00;100361.62;1705086;84;21340;-67
2020/12/16 01:00:53;;;;;;;48.23;28.35;;;;;;;1.25;100.00;100367.20;1704464;84;21327;-67
2020/12/16 01:03:23;;;;;;;52.20;28.35;;;;;;;1.29;100.00;100360.95;1694676;84;21698;-67
2020/12/16 01:05:52;;;;;;;52.15;27.82;;;;;;;1.30;100.00;100359.18;1704252;84;21214;-68
2020/12/16 01:08:20;;;;;;;59.20;28.27;;;;;;;1.29;100.00;100350.96;1686506;84;21654;-67
2020/12/16 01:10:48;;;;;;;49.70;27.77;;;;;;;1.27;100.00;100352.36;1705448;84;21335;-67
2020/12/16 01:13:16;;;;;;;50.20;26.50;;;;;;;1.23;100.00;100349.48;1668347;84;21344;-67
2020/12/16 01:15:44;;;;;;;43.63;26.35;;;;;;;1.23;100.00;100344.28;1690931;84;21634;-67
2020/12/16 01:18:12;;;;;;;45.35;26.73;;;;;;;1.23;100.00;100350.80;1692998;84;21181;-67
2020/12/16 01:20:42;;;;;;;51.30;28.47;;;;;;;1.23;100.00;100339.53;1680066;84;21170;-67
2020/12/16 01:23:15;;;;;;;56.60;28.85;;;;;;;1.25;100.00;100339.00;1685498;84;21178;-67
2020/12/16 01:25:43;;;;;;;49.73;28.00;;;;;;;1.26;100.00;100340.23;1688951;84;21193;-67
2020/12/16 01:28:12;;;;;;;70.30;27.90;;;;;;;1.23;100.00;100342.98;1677453;84;21645;-67
2020/12/16 01:30:41;;;;;;;96.78;28.02;;;;;;;1.23;100.00;100336.92;1694249;84;21197;-67
2020/12/16 01:33:09;;;;;;;51.10;26.73;;;;;;;1.24;100.00;100336.86;1677235;84;21217;-68
2020/12/16 01:35:37;;;;;;;49.53;27.30;;;;;;;1.23;100.00;100336.92;1681620;84;21640;-67
2020/12/16 01:38:05;;;;;;;57.78;27.25;;;;;;;1.19;100.00;100331.02;1679433;84;21193;-67
2020/12/16 01:40:35;;;;;;;68.20;29.02;;;;;;;1.13;100.00;100330.01;1703253;84;21130;-67
2020/12/16 01:43:03;;;;;;;57.95;27.37;;;;;;;1.13;100.00;100324.80;1704599;84;21197;-67
2020/12/16 01:45:32;;;;;;;65.47;27.35;;;;;;;1.16;100.00;100319.45;1694757;84;21241;-67
2020/12/16 01:48:00;;;;;;;80.28;27.67;;;;;;;1.11;100.00;100317.05;1686016;84;21189;-67
2020/12/16 01:50:28;;;;;;;48.75;25.08;;;;;;;1.10;100.00;100320.56;1696052;84;21359;-67
2020/12/16 01:52:58;;;;;;;43.70;26.70;;;;;;;1.10;100.00;100315.81;1703205;84;21323;-67
2020/12/16 01:55:37;;;;;;;53.00;27.62;;;;;;;1.13;100.00;100315.22;1694898;84;21598;-67
2020/12/16 01:58:07;;;;;;;56.63;27.75;;;;;;;1.19;100.00;100314.55;1686522;84;21157;-68
2020/12/16 02:00:36;;;;;;;59.20;28.30;;;;;;;1.19;100.00;100312.77;1673282;84;21332;-68
2020/12/16 02:03:04;;;;;;;68.15;27.60;;;;;;;1.16;100.00;100314.25;1695488;84;21197;-67
2020/12/16 02:05:34;;;;;;;97.00;28.95;;;;;;;1.14;100.00;100305.63;1662425;84;21399;-67
2020/12/16 02:08:04;;;;;;;46.23;26.30;;;;;;;1.11;100.00;100308.41;1656453;84;21780;-67
2020/12/16 02:10:33;;;;;;;46.75;27.50;;;;;;;1.09;100.00;100314.14;1701375;84;21213;-67
2020/12/16 02:13:01;;;;;;;55.10;28.60;;;;;;;1.10;100.00;100310.61;1701674;84;21613;-68
2020/12/16 02:15:29;;;;;;;61.88;28.25;;;;;;;1.09;100.00;100314.98;1652022;84;21327;-67
2020/12/16 02:17:56;;;;;;;65.10;29.67;;;;;;;1.09;100.00;100310.23;1684008;84;21211;-67
2020/12/16 02:20:25;;;;;;;76.95;28.45;;;;;;;1.09;100.00;100311.07;1694791;84;21206;-67
2020/12/16 02:22:55;;;;;;;63.68;27.37;;;;;;;1.08;100.00;100304.63;1696314;84;21375;-67
2020/12/16 02:25:24;;;;;;;51.45;28.32;;;;;;;1.05;100.00;100305.63;1681915;84;21186;-68
2020/12/16 02:27:57;;;;;;;49.80;29.73;;;;;;;1.04;100.00;100302.63;1702822;84;21563;-68
2020/12/16 02:30:26;;;;;;;45.78;27.27;;;;;;;1.08;100.00;100304.16;1655152;84;21177;-67
2020/12/16 02:33:28;;;;;;;62.90;28.98;;;;;;;1.12;100.00;100304.42;1809302;78;23136;-68
2020/12/16 02:35:58;;;;;;;66.65;26.68;;;;;;;1.04;100.00;100306.99;1726191;83;21183;-68
2020/12/16 02:38:32;;;;;;;66.22;27.52;;;;;;;1.03;100.00;100310.50;1671515;83;21200;-68
2020/12/16 02:41:00;;;;;;;69.77;26.37;;;;;;;1.03;100.00;100310.50;1715811;83;21224;-68
2020/12/16 02:43:28;;;;;;;49.85;29.00;;;;;;;1.01;100.00;100305.83;1689572;83;21617;-68
2020/12/16 02:45:56;;;;;;;43.48;26.82;;;;;;;0.99;100.00;100302.45;1719629;83;21197;-68
2020/12/16 02:48:24;;;;;;;47.00;27.55;;;;;;;1.01;100.00;100298.02;1718382;83;21197;-68
2020/12/16 02:50:54;;;;;;;41.92;25.10;;;;;;;1.02;100.00;100303.16;1722329;83;21148;-68
2020/12/16 02:53:23;;;;;;;56.88;25.25;;;;;;;1.00;100.00;100306.30;1717624;83;21202;-68
2020/12/16 02:56:23;;;;;;;50.38;25.95;;;;;;;1.01;100.00;100303.22;1806705;77;23723;-68
2020/12/16 02:58:57;;;;;;;41.08;24.85;;;;;;;0.94;100.00;100300.91;1723430;82;21633;-68
2020/12/16 03:01:26;;;;;;;43.95;26.90;;;;;;;0.93;100.00;100307.02;1737715;80;21298;-68
2020/12/16 03:03:58;;;;;;;52.90;26.48;;;;;;;0.93;100.00;100304.42;1722548;83;21289;-68
2020/12/16 03:07:04;;;;;;;52.13;26.65;;;;;;;0.96;100.00;100297.77;1798204;79;23679;-66
2020/12/16 03:09:34;;;;;;;52.27;25.08;;;;;;;0.92;100.00;100294.94;1764913;80;21147;-68
2020/12/16 03:12:03;;;;;;;58.48;25.02;;;;;;;0.91;100.00;100299.74;1765004;80;21163;-68
2020/12/16 03:14:38;;;;;;;38.88;23.67;;;;;;;0.90;100.00;100300.67;1769392;80;21136;-68
2020/12/16 03:17:07;;;;;;;37.83;22.07;;;;;;;0.89;100.00;100296.37;1794014;80;21160;-68
2020/12/16 03:19:36;;;;;;;42.58;24.52;;;;;;;0.92;100.00;100296.70;1772826;80;21168;-68
2020/12/16 03:22:04;;;;;;;39.50;22.95;;;;;;;0.91;100.00;100298.91;1725652;83;21167;-68
2020/12/16 03:24:34;;;;;;;41.40;23.70;;;;;;;0.89;100.00;100296.83;1725790;81;21203;-68
2020/12/16 03:27:19;;;;;;;46.25;22.80;;;;;;;0.91;100.00;100297.61;1630296;87;21735;-68
2020/12/16 03:30:21;;;;;;;43.92;23.20;;;;;;;0.99;100.00;100294.64;1802148;78;23088;-68
2020/12/16 03:33:07;;;;;;;40.17;22.70;;;;;;;0.90;100.00;100295.47;1785797;80;21202;-68
2020/12/16 03:35:37;;;;;;;39.95;22.37;;;;;;;0.89;100.00;100298.14;1707974;83;21735;-68
2020/12/16 03:38:06;;;;;;;40.90;23.38;;;;;;;0.91;100.00;100296.30;1733955;81;21165;-68
2020/12/16 03:40:35;;;;;;;41.18;22.77;;;;;;;0.91;100.00;100297.14;1702245;83;21186;-68
2020/12/16 03:43:03;;;;;;;44.33;21.87;;;;;;;0.95;100.00;100306.52;1708601;84;21255;-68
2020/12/16 03:45:32;;;;;;;37.78;21.12;;;;;;;0.90;100.00;100308.48;1707178;84;21735;-68
2020/12/16 03:48:02;;;;;;;37.00;20.27;;;;;;;0.86;100.00;100303.04;1698775;84;21715;-68
2020/12/16 03:50:31;;;;;;;35.52;20.08;;;;;;;0.85;100.00;100310.45;1719077;82;21143;-68
2020/12/16 03:52:59;;;;;;;37.05;20.48;;;;;;;0.82;100.00;100307.98;1719132;83;21185;-68
2020/12/16 03:56:13;;;;;;;37.35;19.98;;;;;;;0.92;100.00;100308.42;1931213;74;22348;-68
2020/12/16 03:58:47;;;;;;;36.00;19.23;;;;;;;0.89;100.00;100309.86;1819857;75;21104;-68
2020/12/16 04:01:19;;;;;;;36.83;19.20;;;;;;;0.89;100.00;100317.20;1891191;75;21124;-68
2020/12/16 04:03:48;;;;;;;34.80;19.75;;;;;;;0.93;100.00;100318.74;1896067;75;21128;-68
2020/12/16 04:06:17;;;;;;;30.10;17.20;;;;;;;0.95;100.00;100313.03;1819967;78;21148;-68
2020/12/16 04:08:45;;;;;;;32.78;18.50;;;;;;;0.95;100.00;100315.64;1812370;78;21216;-68
2020/12/16 04:11:17;;;;;;;34.67;19.60;;;;;;;0.91;100.00;100315.84;1823182;78;21298;-68
2020/12/16 04:13:46;;;;;;;33.75;19.77;;;;;;;0.90;100.00;100320.67;1803112;78;21715;-68
2020/12/16 04:16:20;;;;;;;30.57;19.80;;;;;;;0.89;100.00;100321.11;1805717;78;21297;-68
2020/12/16 04:18:50;;;;;;;33.98;18.60;;;;;;;0.89;100.00;100317.20;1772978;79;21585;-68
2020/12/16 04:21:19;;;;;;;34.85;18.87;;;;;;;0.86;100.00;100318.66;1800178;78;21281;-68
2020/12/16 04:23:48;;;;;;;33.28;19.20;;;;;;;0.82;100.00;100317.09;1801226;78;21572;-69
2020/12/16 04:26:29;;;;;;;30.32;17.73;;;;;;;0.79;100.00;100322.46;1805953;78;21540;-68
2020/12/16 04:28:58;;;;;;;29.40;17.50;;;;;;;0.79;100.00;100322.46;1803759;78;21277;-69
2020/12/16 04:31:26;;;;;;;30.77;17.25;;;;;;;0.79;100.00;100325.06;1801867;78;21575;-68
2020/12/16 04:33:55;;;;;;;28.10;17.17;;;;;;;0.76;100.00;100319.52;1814664;78;21299;-68
2020/12/16 04:36:23;;;;;;;29.90;18.15;;;;;;;0.76;100.00;100322.59;1768297;78;21168;-68
2020/12/16 04:38:52;;;;;;;30.40;17.57;;;;;;;0.75;100.00;100326.96;1799614;78;21153;-68
2020/12/16 04:41:21;;;;;;;29.07;17.17;;;;;;;0.76;100.00;100326.03;1794600;79;21313;-68
2020/12/16 04:43:51;;;;;;;30.52;16.45;;;;;;;0.74;100.00;100330.47;1790122;79;21130;-69
2020/12/16 04:46:19;;;;;;;28.10;16.73;;;;;;;0.72;100.00;100327.55;1698529;80;21309;-69
2020/12/16 04:48:46;;;;;;;29.40;17.73;;;;;;;0.74;100.00;100328.33;1751788;79;21608;-68
2020/12/16 04:51:22;;;;;;;26.85;16.90;;;;;;;0.73;100.00;100331.39;1817860;78;21124;-68
2020/12/16 04:53:52;;;;;;;30.27;17.07;;;;;;;0.71;100.00;100334.97;1780869;80;21125;-68
2020/12/16 04:56:22;;;;;;;25.20;15.48;;;;;;;0.69;100.00;100337.66;1724522;81;21139;-69
2020/12/16 04:59:07;;;;;;;29.65;16.70;;;;;;;0.68;100.00;100333.82;1753692;80;21534;-68
2020/12/16 05:01:41;;;;;;;28.90;15.30;;;;;;;0.66;100.00;100334.35;1815397;78;21263;-68
2020/12/16 05:04:11;;;;;;;25.95;15.75;;;;;;;0.69;100.00;100336.80;1752040;81;21155;-68
2020/12/16 05:06:43;;;;;;;27.25;16.80;;;;;;;0.70;100.00;100339.34;1792209;79;22570;-69
2020/12/16 05:09:13;;;;;;;25.97;16.20;;;;;;;0.69;100.00;100346.78;1794701;79;21166;-68
2020/12/16 05:11:45;;;;;;;26.23;15.70;;;;;;;0.70;100.00;100351.52;1778077;79;21659;-69
2020/12/16 05:14:23;;;;;;;26.97;15.23;;;;;;;0.72;100.00;100347.92;1747496;79;21162;-69
2020/12/16 05:17:01;;;;;;;25.50;15.93;;;;;;;0.70;100.00;100339.34;1781533;80;21134;-68
2020/12/16 05:19:36;;;;;;;29.48;15.65;;;;;;;0.67;100.00;100336.86;1791287;79;21171;-68
2020/12/16 05:22:30;;;;;;;26.00;15.80;;;;;;;0.64;100.00;100337.02;1755496;80;21115;-68
2020/12/16 05:24:59;;;;;;;26.48;15.80;;;;;;;0.66;100.00;100333.05;1774726;79;21171;-68
2020/12/16 05:27:30;;;;;;;27.73;16.17;;;;;;;0.64;100.00;100337.02;1794419;80;21596;-69
2020/12/16 05:30:06;;;;;;;25.52;16.27;;;;;;;0.58;100.00;100326.42;1795181;78;21277;-69
2020/12/16 05:32:35;;;;;;;28.95;17.23;;;;;;;0.56;100.00;100324.34;1777030;80;21337;-67
2020/12/16 05:35:26;;;;;;;27.02;16.25;;;;;;;0.56;100.00;100321.75;1796913;78;21548;-67
2020/12/16 05:38:07;;;;;;;27.27;15.48;;;;;;;0.59;100.00;100325.95;1774599;80;21292;-67
2020/12/16 05:40:40;;;;;;;26.55;16.17;;;;;;;0.62;100.00;100321.06;1728323;80;21331;-67
2020/12/16 05:43:08;;;;;;;27.73;15.58;;;;;;;0.62;100.00;100320.62;1782162;78;21166;-68
2020/12/16 05:45:39;;;;;;;26.48;16.02;;;;;;;0.62;100.00;100320.62;1770449;80;21721;-68
2020/12/16 05:48:11;;;;;;;31.77;16.52;;;;;;;0.66;100.00;100330.45;1775803;79;21154;-68
2020/12/16 05:50:52;;;;;;;29.67;18.02;;;;;;;0.69;100.00;100322.47;1781643;80;21623;-68
2020/12/16 05:53:26;;;;;;;27.13;15.45;;;;;;;0.68;100.00;100324.70;1780126;80;21137;-67
2020/12/16 05:55:57;;;;;;;27.80;16.17;;;;;;;0.68;100.00;100325.55;1771709;80;21143;-68
2020/12/16 05:58:31;;;;;;;29.18;17.17;;;;;;;0.66;100.00;100330.45;1790972;79;21160;-68
2020/12/16 06:01:06;;;;;;;27.40;16.17;;;;;;;0.61;100.00;100324.13;1804273;78;21286;-69
2020/12/16 06:03:39;;;;;;;29.52;16.95;;;;;;;0.57;100.00;100327.32;1822989;79;21147;-68
2020/12/16 06:06:10;;;;;;;28.40;16.52;;;;;;;0.53;100.00;100327.55;1819921;78;21298;-68
2020/12/16 06:08:42;;;;;;;28.77;16.97;;;;;;;0.52;100.00;100331.05;1821273;78;21148;-68
2020/12/16 06:11:12;;;;;;;31.60;17.45;;;;;;;0.53;100.00;100330.98;1797063;79;21593;-70
2020/12/16 06:13:46;;;;;;;29.25;17.02;;;;;;;0.61;100.00;100336.31;1816554;78;21317;-69
2020/12/16 06:16:13;;;;;;;26.60;16.73;;;;;;;0.64;100.00;100345.30;1811784;79;21171;-69
2020/12/16 06:18:47;;;;;;;27.52;16.15;;;;;;;0.62;100.00;100341.45;1804156;78;21160;-68
2020/12/16 06:21:14;;;;;;;31.00;17.65;;;;;;;0.60;100.00;100344.58;1822427;78;21536;-68
2020/12/16 06:23:43;;;;;;;28.75;16.55;;;;;;;0.61;100.00;100348.86;1803439;78;21308;-68
2020/12/16 06:26:15;;;;;;;29.50;17.20;;;;;;;0.62;100.00;100347.95;1774434;80;21175;-68
2020/12/16 06:28:45;;;;;;;29.10;16.60;;;;;;;0.64;100.00;100342.69;1789670;79;21305;-68
2020/12/16 06:31:28;;;;;;;28.25;17.17;;;;;;;0.64;100.00;100345.30;1739790;80;21115;-68
2020/12/16 06:34:09;;;;;;;27.60;15.45;;;;;;;0.65;100.00;100349.56;1719908;81;21310;-69
2020/12/16 06:36:40;;;;;;;27.73;15.72;;;;;;;0.63;99.86;100350.09;1799801;78;21159;-69
2020/12/16 06:39:21;;;;;;;27.02;16.62;;;;;;;0.64;99.60;100355.70;1763252;80;21709;-68
2020/12/16 06:41:58;;;;;;;23.77;14.90;;;;;;;0.63;99.63;100353.53;1768255;79;21104;-69
2020/12/16 06:44:26;;;;;;;21.55;13.13;;;;;;;0.68;99.49;100358.55;1747224;81;21180;-67
2020/12/16 06:46:57;;;;;;;24.20;13.53;;;;;;;0.71;98.74;100357.96;1794262;79;21285;-68
2020/12/16 06:49:27;;;;;;;23.95;14.05;;;;;;;0.73;98.11;100362.64;1783731;80;21167;-68
2020/12/16 06:52:08;;;;;;;19.67;12.58;;;;;;;0.73;97.81;100361.77;1746365;80;21297;-69
2020/12/16 06:54:53;;;;;;;22.98;12.88;;;;;;;0.73;96.99;100361.77;1782586;80;21196;-68
2020/12/16 06:57:24;;;;;;;23.52;13.88;;;;;;;0.73;96.55;100361.34;1774499;80;21326;-67
2020/12/16 07:00:00;;;;;;;20.57;12.73;;;;;;;0.74;96.43;100364.78;1799698;78;21595;-67
2020/12/16 07:02:31;;;;;;;17.77;11.90;;;;;;;0.77;96.03;100371.16;1762911;80;21293;-69
2020/12/16 07:05:01;;;;;;;18.73;10.63;;;;;;;0.81;96.21;100367.50;1794257;79;21297;-69
2020/12/16 07:07:47;;;;;;;21.93;13.40;;;;;;;0.85;95.39;100372.95;1779542;80;21732;-68
2020/12/16 07:10:37;;;;;;;18.12;12.50;;;;;;;0.87;95.08;100375.03;1786970;80;21160;-69
2020/12/16 07:13:28;;;;;;;19.90;12.43;;;;;;;0.88;94.87;100376.73;1823435;78;21183;-68
2020/12/16 07:16:09;;;;;;;15.93;9.98;;;;;;;0.90;94.64;100372.30;1775589;80;21577;-68
2020/12/16 07:18:45;;;;;;;17.87;11.30;;;;;;;0.90;94.09;100376.20;1763968;80;21132;-68
2020/12/16 07:21:17;;;;;;;15.38;10.10;;;;;;;0.91;93.92;100374.44;1767611;80;21187;-68
2020/12/16 07:23:53;;;;;;;15.68;10.68;;;;;;;0.90;93.63;100367.55;1792045;79;21139;-69
2020/12/16 07:26:31;;;;;;;18.82;11.43;;;;;;;0.88;92.95;100367.62;1781679;79;21186;-70
2020/12/16 07:29:00;;;;;;;14.73;9.85;;;;;;;0.86;92.95;100364.23;1786288;79;21317;-70
2020/12/16 07:31:28;;;;;;;12.30;8.45;;;;;;;0.88;93.17;100363.71;1791185;79;21158;-70
2020/12/16 07:33:56;;;;;;;12.03;8.08;;;;;;;0.92;92.30;100363.12;1782844;79;21555;-70
2020/12/16 07:36:23;;;;;;;17.20;9.95;;;;;;;0.94;90.48;100362.12;1745329;80;21305;-69
2020/12/16 07:38:53;;;;;;;12.68;8.18;;;;;;;0.94;89.88;100365.19;1782768;79;21216;-69
2020/12/16 07:41:29;;;;;;;12.28;8.25;;;;;;;0.97;89.52;100363.73;1780708;79;21155;-69
2020/12/16 07:47:01;;;;;;;13.90;9.50;;;;;;;1.05;89.82;100363.38;1791871;78;28313;-67
2020/12/16 07:49:33;;;;;;;16.27;10.30;;;;;;;1.15;90.06;100368.56;1748236;81;21349;-68
2020/12/16 07:52:02;;;;;;;14.10;10.05;;;;;;;1.24;89.89;100364.69;1722553;83;21185;-69
2020/12/16 07:54:30;;;;;;;14.35;10.50;;;;;;;1.25;89.90;100372.87;1719299;83;21196;-69
2020/12/16 07:57:01;;;;;;;16.48;11.05;;;;;;;1.23;89.50;100376.84;1714312;83;21731;-69
2020/12/16 07:59:33;;;;;;;15.98;11.18;;;;;;;1.21;89.06;100376.55;1709327;82;21207;-68
2020/12/16 08:02:13;;;;;;;16.73;11.30;;;;;;;1.20;89.54;100374.84;1728733;83;21140;-70
2020/12/16 08:04:45;;;;;;;15.83;10.53;;;;;;;1.22;89.69;100372.57;1686097;83;21585;-69
2020/12/16 08:07:19;;;;;;;16.27;11.83;;;;;;;1.26;89.57;100372.81;1713866;83;21210;-69
2020/12/16 08:10:00;;;;;;;15.65;10.93;;;;;;;1.28;89.39;100368.83;1715531;82;21176;-70
2020/12/16 08:12:31;;;;;;;18.30;12.18;;;;;;;1.31;89.49;100372.58;1763406;81;21560;-69
2020/12/16 08:15:15;;;;;;;18.70;12.95;;;;;;;1.31;89.42;100364.33;1714534;82;21180;-70
2020/12/16 08:17:47;;;;;;;19.05;13.18;;;;;;;1.32;89.73;100367.30;1738005;81;21297;-70
2020/12/16 08:20:22;;;;;;;14.43;10.00;;;;;;;1.36;89.83;100368.84;1744704;81;21179;-70
2020/12/16 08:22:56;;;;;;;20.10;13.40;;;;;;;1.42;89.25;100374.69;1728938;82;21176;-69
2020/12/16 08:25:24;;;;;;;17.73;13.90;;;;;;;1.40;89.46;100372.61;1761323;81;21120;-70
2020/12/16 08:27:54;;;;;;;22.52;15.72;;;;;;;1.38;89.58;100364.02;1722573;83;21192;-71
2020/12/16 08:30:27;;;;;;;19.12;14.40;;;;;;;1.35;89.99;100371.08;1686071;82;21578;-70
2020/12/16 08:33:06;;;;;;;21.62;15.45;;;;;;;1.35;90.01;100367.16;1699420;82;21581;-70
2020/12/16 08:35:53;;;;;;;21.57;14.93;;;;;;;1.35;89.94;100371.55;1723975;83;21318;-70
2020/12/16 08:38:35;;;;;;;21.07;14.33;;;;;;;1.36;89.81;100372.75;1715697;82;21186;-71
2020/12/16 08:41:05;;;;;;;20.17;14.15;;;;;;;1.40;89.47;100370.01;1679930;84;21207;-69
2020/12/16 08:43:46;;;;;;;20.30;14.28;;;;;;;1.41;88.86;100370.41;1712167;83;21352;-71
2020/12/16 08:46:19;;;;;;;19.02;13.83;;;;;;;1.40;88.92;100373.45;1704596;83;21255;-71
2020/12/16 08:49:01;;;;;;;18.37;11.90;;;;;;;1.38;88.51;100373.98;1699212;84;21314;-69
2020/12/16 08:51:40;;;;;;;19.27;14.80;;;;;;;1.38;88.38;100369.23;1685079;84;21540;-69
2020/12/16 08:54:17;;;;;;;19.35;14.13;;;;;;;1.31;88.98;100364.33;1730271;83;21619;-70
2020/12/16 08:56:54;;;;;;;18.62;13.68;;;;;;;1.32;89.52;100359.48;1700262;83;21584;-68
2020/12/16 08:59:28;;;;;;;19.42;13.80;;;;;;;1.40;89.08;100363.49;1690137;84;21183;-69
2020/12/16 09:02:07;;;;;;;20.08;13.70;;;;;;;1.41;89.36;100359.98;1712127;83;21275;-68
2020/12/16 09:04:39;;;;;;;20.52;14.53;;;;;;;1.43;89.83;100363.36;1673249;84;21318;-70
2020/12/16 09:07:12;;;;;;;18.10;14.30;;;;;;;1.44;89.85;100363.29;1688486;84;21184;-70
2020/12/16 09:09:50;;;;;;;;;;;;;;;1.46;89.40;100365.80;1710783;83;21722;-69
2020/12/16 09:12:21;;;;;;;21.60;14.98;;;;;;;1.45;89.49;100357.61;1708206;83;20132;-70
2020/12/16 09:17:54;;;;;;;19.35;13.28;;;;;;;1.55;89.84;100360.14;1810020;78;23485;-70
2020/12/16 09:20:23;;;;;;;19.35;15.18;;;;;;;1.51;89.56;100357.30;1787458;80;21604;-72
2020/12/16 09:22:53;;;;;;;18.25;14.35;;;;;;;1.49;89.64;100355.23;1782529;80;21162;-70
2020/12/16 09:25:21;;;;;;;19.62;14.87;;;;;;;1.47;89.58;100368.33;1791604;80;21178;-71
2020/12/16 09:27:56;;;;;;;22.17;15.75;;;;;;;1.42;89.04;100369.03;1790161;80;21150;-70
2020/12/16 09:30:33;;;;;;;21.55;15.63;;;;;;;1.38;89.46;100358.81;1780210;80;21611;-69
2020/12/16 09:33:13;;;;;;;19.10;14.87;;;;;;;1.38;89.61;100361.42;1790653;80;21183;-70
2020/12/16 09:35:42;;;;;;;20.57;14.65;;;;;;;1.41;89.46;100357.38;1730144;83;21611;-70
2020/12/16 09:38:16;;;;;;;19.27;14.50;;;;;;;1.42;89.46;100361.66;1753935;81;21380;-70
2020/12/16 09:40:48;;;;;;;21.02;15.32;;;;;;;1.41;89.18;100356.07;1678473;83;21156;-73
2020/12/16 09:43:16;;;;;;;16.02;11.97;;;;;;;1.39;89.09;100353.53;1748278;81;21176;-70
2020/12/16 09:45:43;;;;;;;20.23;16.05;;;;;;;1.36;89.26;100357.11;1687163;84;21200;-71
2020/12/16 09:48:11;;;;;;;20.50;15.18;;;;;;;1.35;89.05;100351.53;1714388;81;21131;-75
2020/12/16 09:50:40;;;;;;;19.05;14.25;;;;;;;1.34;88.71;100343.31;1679408;84;21251;-70
2020/12/16 09:53:10;;;;;;;20.30;14.03;;;;;;;1.34;89.16;100342.01;1708064;83;21736;-73
2020/12/16 09:55:41;;;;;;;20.57;14.93;;;;;;;1.35;88.77;100341.57;1691543;84;21608;-71
2020/12/16 09:58:12;;;;;;;20.48;15.30;;;;;;;1.33;88.77;100336.42;1695915;84;21323;-71
2020/12/16 10:00:40;;;;;;;22.02;15.95;;;;;;;1.32;89.45;100342.54;1691225;84;21596;-71
2020/12/16 10:03:10;;;;;;;26.27;16.23;;;;;;;1.32;89.00;100334.72;1749207;81;21211;-71
2020/12/16 10:05:39;;;;;;;19.52;15.35;;;;;;;1.31;89.25;100327.84;1754790;81;21180;-73
2020/12/16 10:08:11;;;;;;;21.55;14.47;;;;;;;1.30;89.17;100323.53;1747073;81;21163;-72
2020/12/16 10:10:39;;;;;;;21.55;14.03;;;;;;;1.31;89.07;100323.93;1742936;81;21207;-72
2020/12/16 10:13:07;;;;;;;18.77;14.75;;;;;;;1.29;89.22;100320.99;1737434;81;21227;-71
2020/12/16 10:15:34;;;;;;;19.25;15.20;;;;;;;1.26;89.66;100320.69;1758356;81;21188;-72
2020/12/16 10:18:01;;;;;;;20.17;14.58;;;;;;;1.25;90.01;100324.67;1746193;81;21592;-71
2020/12/16 10:20:30;;;;;;;20.02;14.63;;;;;;;1.21;88.99;100329.65;1745489;81;21192;-72
2020/12/16 10:22:58;;;;;;;19.87;13.35;;;;;;;1.16;89.21;100328.58;1730757;81;21136;-71
2020/12/16 10:25:25;;;;;;;17.17;12.05;;;;;;;1.12;89.39;100317.89;1753735;81;21309;-71
2020/12/16 10:27:53;;;;;;;21.50;14.05;;;;;;;1.11;89.38;100307.94;1764466;81;21722;-71
2020/12/16 10:30:24;;;;;;;18.65;13.53;;;;;;;1.08;90.22;100317.65;1715459;81;21170;-69
2020/12/16 10:32:52;;;;;;;18.12;14.30;;;;;;;1.07;90.06;100310.77;1756912;81;21176;-70
2020/12/16 10:35:21;;;;;;;17.73;13.48;;;;;;;1.06;90.72;100315.58;1722852;81;21581;-71
2020/12/16 10:37:49;;;;;;;20.88;16.02;;;;;;;1.07;91.17;100310.77;1762428;81;21350;-71
2020/12/16 10:40:16;;;;;;;19.80;14.50;;;;;;;1.07;91.33;100310.77;1735264;81;21184;-72
2020/12/16 10:42:44;;;;;;;19.45;13.22;;;;;;;1.11;91.34;100313.61;1744064;81;21162;-71
2020/12/16 10:45:12;;;;;;;19.65;14.85;;;;;;;1.13;91.52;100319.13;1742345;81;21191;-72
2020/12/16 10:47:40;;;;;;;18.17;13.65;;;;;;;1.14;91.43;100316.92;1738300;81;21591;-72
2020/12/16 10:50:08;;;;;;;17.65;13.68;;;;;;;1.19;91.35;100310.17;1761528;81;21148;-72
2020/12/16 10:52:35;;;;;;;18.92;14.78;;;;;;;1.19;90.29;100302.35;1755211;81;21317;-72
2020/12/16 10:55:03;;;;;;;15.80;11.78;;;;;;;1.13;90.22;100303.48;1726666;81;21175;-71
2020/12/16 10:57:30;;;;;;;14.78;11.43;;;;;;;1.07;89.79;100307.70;1739515;81;21696;-72
2020/12/16 10:59:58;;;;;;;12.13;9.48;;;;;;;1.04;89.61;100297.87;1717995;81;21174;-72
2020/12/16 11:02:27;;;;;;;12.23;9.50;;;;;;;1.00;88.90;100311.97;1755544;81;21724;-71
2020/12/16 11:04:54;;;;;;;10.50;8.33;;;;;;;0.94;88.72;100314.40;1735633;81;21596;-73
2020/12/16 11:07:23;;;;;;;10.58;8.20;;;;;;;0.89;88.51;100298.97;1731244;81;21172;-70
2020/12/16 11:09:51;;;;;;;8.55;6.90;;;;;;;0.88;88.42;100304.24;1709182;81;21719;-71
2020/12/16 11:12:18;;;;;;;11.38;7.75;;;;;;;0.86;87.85;100295.23;1736358;81;21132;-70
2020/12/16 11:14:45;;;;;;;9.73;7.42;;;;;;;0.84;88.36;100294.46;1761894;81;21175;-72
2020/12/16 11:17:13;;;;;;;11.68;8.48;;;;;;;0.79;88.73;100295.13;1757769;81;21298;-72
2020/12/16 11:19:41;;;;;;;11.18;8.58;;;;;;;0.76;89.64;100296.09;1752549;81;21310;-72
2020/12/16 11:22:09;;;;;;;10.60;7.53;;;;;;;0.77;89.80;100299.56;1754888;81;21604;-71
2020/12/16 11:24:37;;;;;;;11.53;8.23;;;;;;;0.78;89.92;100300.77;1761232;81;21188;-72
2020/12/16 11:27:05;;;;;;;11.30;8.18;;;;;;;0.83;90.15;100293.22;1742714;81;21175;-71
2020/12/16 11:29:33;;;;;;;11.20;8.53;;;;;;;0.83;90.47;100286.71;1751255;81;21718;-71
2020/12/16 11:32:04;;;;;;;14.78;10.00;;;;;;;0.84;90.85;100285.78;1729539;81;21132;-71
2020/12/16 11:37:28;;;;;;;14.10;10.43;;;;;;;0.85;90.74;100279.20;1785016;79;39108;-72
2020/12/16 11:39:59;;;;;;;12.90;9.23;;;;;;;0.90;90.89;100282.45;1707980;82;21619;-73
2020/12/16 11:42:28;;;;;;;13.58;9.25;;;;;;;0.98;90.77;100285.16;1731150;83;21586;-73
2020/12/16 11:44:56;;;;;;;13.18;9.83;;;;;;;0.96;90.86;100284.75;1680756;83;21150;-70